No se requiere un especial cuidado respecto a la situación meteorológica.   -   No hay avisos

Informes METAR

 

LEZL - Sevilla, Spain
Distancia de la estación: ENE 8km
Actualización: 16/12/2017 08:00
Despejado
Despejado
 Viento de NE
Viento: NE 6 km/h
Temperatura: 8°C
Rocío: 5°C
Humedad: 82%
Barómetro: 1018 hPa
Resumen: Despejado
Visibilidad: mayor de 10 km
2017/12/16 07:00 LEZL 160700Z 04003KT CAVOK 08/05 Q1018 NOSIG
LEMO - Morón, Spain
Distancia de la estación: SE 43km
Actualización: 16/12/2017 08:00
Despejado
Despejado
 Viento de NE
Viento: NE 11 km/h
Temperatura: 6°C
Sensación térmica: 4°C
Rocío: 4°C
Humedad: 87%
Barómetro: 1017 hPa
Resumen: Despejado
Visibilidad: mayor de 10 km
2017/12/16 07:00 LEMO 160700Z 05006KT CAVOK 06/04 Q1017 NOSIG
LEJR - Jeréz, Spain
Distancia de la estación: S 71km
Actualización: 16/12/2017 08:00
Despejado
Despejado
 Viento de N
Viento: N 20 km/h
Temperatura: 7°C
Sensación térmica: 4°C
Rocío: 6°C
Humedad: 93%
Barómetro: 1017 hPa
Resumen: Despejado
Visibilidad: mayor de 10 km
2017/12/16 07:00 LEJR 160700Z 35011KT CAVOK 07/06 Q1017
 
LERT - Rota, Spain
Distancia de la estación: SSO 89km
Actualización: 16/12/2017 08:00
Despejado
Despejado
 Viento de N
Viento: N 15 km/h
Temperatura: 7°C
Sensación térmica: 4°C
Rocío: 4°C
Humedad: 81%
Barómetro: 1017 hPa
Resumen: Despejado
Visibilidad: mayor de 10 km
2017/12/16 07:00 LERT 160700Z 36008KT CAVOK 07/04 Q1017 NOSIG
LEMG - Málaga, Spain
Distancia de la estación: ESE 157km
Actualización: 16/12/2017 08:00
Poco nuboso
Poco nuboso
 Viento de O
Viento: O 31 km/h
Temperatura: 11°C
Rocío: 6°C
Humedad: 72%
Barómetro: 1015 hPa
Nubes: Poco nuboso
Visibilidad: 10 km
Detalles de las nubes: Poco nuboso 1372 m
2017/12/16 07:00 LEMG 160700Z 28017KT 9999 FEW045 11/06 Q1015 NOSIG
LEBA - Córdoba, Spain
Distancia de la estación: ENE 115km
Actualización: 16/12/2017 08:00
Despejado
Despejado
 Viento de E
Viento: E 11 km/h
Temperatura: 6°C
Sensación térmica: 4°C
Rocío: 2°C
Humedad: 76%
Barómetro: 1018 hPa
Resumen: Despejado
Visibilidad: mayor de 10 km
2017/12/16 07:00 LEBA 160700Z 08006KT CAVOK 06/02 Q1018
 
LEGR - Granada, Spain
Distancia de la estación: E 198km
Actualización: 16/12/2017 08:00
Poco nuboso
Poco nuboso
 Viento de variable
Viento: variable 4 km/h, Racha: 22 km/h
Temperatura: 7°C
Rocío: -1°C
Humedad: 57%
Barómetro: 1016 hPa
Nubes: Poco nuboso
Visibilidad: 10 km
Detalles de las nubes: Poco nuboso 1219 m
2017/12/16 07:00 LEGR 160700Z VRB02G12KT 9999 FEW040 07/M01 Q1016
LEAM - Almería, Spain
Distancia de la estación: E 326km
Actualización: 16/12/2017 08:00
Muy nuboso
Muy nuboso
 Viento de N
Viento: N 9 km/h
Temperatura: 12°C
Rocío: 10°C
Humedad: 88%
Barómetro: 1014 hPa
Nubes: Muy nuboso
Visibilidad: 10 km
Detalles de las nubes: Poco nuboso 457 m
Muy nuboso 1829 m
2017/12/16 07:00 LEAM 160700Z 35005KT 320V020 9999 FEW015 BKN060 12/10 Q1014
LEMD - Madrid/Barajas, Spain
Distancia de la estación: NNE 402km
Actualización: 16/12/2017 08:00
Despejado
Despejado
 Viento de N
Viento: N 6 km/h
Temperatura: 1°C
Rocío: -2°C
Humedad: 81%
Barómetro: 1019 hPa
Resumen: Despejado
Visibilidad: mayor de 10 km
2017/12/16 07:00 LEMD 160700Z 35003KT 290V020 CAVOK 01/M02 Q1019 NOSIG
 
LEVD - Valladolid, Spain
Distancia de la estación: N 492km
Actualización: 16/12/2017 08:00
Despejado
Despejado
 Viento de calm
Viento: Calma
Temperatura: -2°C
Rocío: -3°C
Humedad: 93%
Barómetro: 1019 hPa
Resumen: Despejado
Visibilidad: mayor de 10 km
2017/12/16 07:00 LEVD 160700Z 00000KT CAVOK M02/M03 Q1019
LEBL - Barcelona, Spain
Distancia de la estación: NE 816km
Actualización: 16/12/2017 08:00
Poco nuboso
Poco nuboso
 Viento de NNO
Viento: NNO 24 km/h
Temperatura: 5°C
Sensación térmica: 1°C
Rocío: 1°C
Humedad: 76%
Barómetro: 1013 hPa
Nubes: Poco nuboso
Visibilidad: 10 km
Detalles de las nubes: Poco nuboso 914 m
2017/12/16 07:00 LEBL 160700Z 34013KT 9999 FEW030 05/01 Q1013 NOSIG
LEVC - Valencia, Spain
Distancia de la estación: ENE 535km
Actualización: 16/12/2017 08:00
Despejado
Despejado
 Viento de SSO
Viento: SSO 7 km/h
Temperatura: 5°C
Sensación térmica: 3°C
Rocío: 0°C
Humedad: 70%
Barómetro: 1016 hPa
Resumen: Despejado
Visibilidad: mayor de 10 km
2017/12/16 07:00 LEVC 160700Z 20004KT 170V230 CAVOK 05/M00 Q1016 NOSIG